Time,TemperatureF,DewpointF,PressureIn,WindDirection,WindDirectionDegrees,WindSpeedMPH,WindSpeedGustMPH,Humidity,HourlyPrecipIn,Conditions,Clouds,dailyrainin,SoftwareType,DateUTC
2013-02-12 00:42:00,-999.0,-99.9,-100.00,WNW,299,23.0,27.0,-999,-99.99,,,-99.99,,2013-02-12 05:42:00,
2013-02-12 01:43:00,-999.0,-99.9,-100.00,WNW,296,13.0,18.0,-999,-99.99,,,-99.99,,2013-02-12 06:43:00,
2013-02-12 03:42:00,-999.0,-99.9,-100.00,WNW,299,18.0,22.0,-999,-99.99,,,-99.99,,2013-02-12 08:42:00,
2013-02-12 05:11:00,-999.0,-99.9,-100.00,NW,313,15.0,20.0,-999,-99.99,,,-99.99,,2013-02-12 10:11:00,
2013-02-12 05:43:00,-999.0,-99.9,-100.00,WNW,301,16.0,20.0,-999,-99.99,,,-99.99,,2013-02-12 10:43:00,
2013-02-12 06:42:00,-999.0,-99.9,-100.00,WNW,290,16.0,20.0,-999,-99.99,,,-99.99,,2013-02-12 11:42:00,
2013-02-12 07:11:00,-999.0,-99.9,-100.00,WNW,296,15.0,19.0,-999,-99.99,,,-99.99,,2013-02-12 12:11:00,
2013-02-12 08:11:00,-999.0,-99.9,-100.00,NW,306,11.0,15.0,-999,-99.99,,,-99.99,,2013-02-12 13:11:00,
2013-02-12 08:42:00,-999.0,-99.9,-100.00,NW,309,9.0,12.0,-999,-99.99,,,-99.99,,2013-02-12 13:42:00,
2013-02-12 10:11:00,-999.0,-99.9,-100.00,WNW,300,11.0,13.0,-999,-99.99,,,-99.99,,2013-02-12 15:11:00,
2013-02-12 11:32:00,-999.0,-99.9,-100.00,WNW,301,11.0,13.0,-999,-99.99,,,-99.99,,2013-02-12 16:32:00,
2013-02-12 11:42:00,-999.0,-99.9,-100.00,WNW,295,6.0,10.0,-999,-99.99,,,-99.99,,2013-02-12 16:42:00,
2013-02-12 13:12:00,-999.0,-99.9,-100.00,WNW,298,12.0,15.0,-999,-99.99,,,-99.99,,2013-02-12 18:12:00,
2013-02-12 13:32:00,-999.0,-99.9,-100.00,WNW,293,12.0,15.0,-999,-99.99,,,-99.99,,2013-02-12 18:32:00,
2013-02-12 14:42:00,-999.0,-99.9,-100.00,West,264,10.0,12.0,-999,-99.99,,,-99.99,,2013-02-12 19:42:00,
2013-02-12 16:11:00,-999.0,-99.9,-100.00,West,261,13.0,15.0,-999,-99.99,,,-99.99,,2013-02-12 21:11:00,
2013-02-12 17:32:00,-999.0,-99.9,-100.00,West,270,5.0,6.0,-999,-99.99,,,-99.99,,2013-02-12 22:32:00,
2013-02-12 17:42:00,-999.0,-99.9,-100.00,WSW,252,5.0,6.0,-999,-99.99,,,-99.99,,2013-02-12 22:42:00,
2013-02-12 19:11:00,-999.0,-99.9,-100.00,SW,236,11.0,14.0,-999,-99.99,,,-99.99,,2013-02-13 00:11:00,
2013-02-12 20:11:00,-999.0,-99.9,-100.00,SW,228,10.0,14.0,-999,-99.99,,,-99.99,,2013-02-13 01:11:00,
2013-02-12 21:22:00,22.0,-99.9,29.83,North,-999,-999.0,-999.0,-999,-99.99,,,-99.99,,2013-02-13 02:22:00,
2013-02-12 21:42:00,21.0,-99.9,29.83,North,-999,-999.0,-999.0,-999,-99.99,,,-99.99,,2013-02-13 02:42:00,
2013-02-12 22:52:00,21.0,-99.9,29.83,North,-999,-999.0,-999.0,-999,-99.99,,,-99.99,,2013-02-13 03:52:00,
2013-02-12 23:11:00,18.0,-99.9,29.82,North,-999,-999.0,-999.0,-999,-99.99,,,-99.99,,2013-02-13 04:11:00,